createdAt,value
2016-04-02T00:00:10.642Z,1021.97
2016-04-02T00:01:10.677Z,1021.98
2016-04-02T00:02:10.694Z,1021.91
2016-04-02T00:03:36.369Z,1021.94
2016-04-02T00:04:10.716Z,1021.96
2016-04-02T00:06:21.674Z,1021.94
2016-04-02T00:08:31.210Z,1021.91
2016-04-02T00:09:31.245Z,1021.94
2016-04-02T00:10:46.450Z,1021.95
2016-04-02T00:11:46.469Z,1021.94
2016-04-02T00:12:46.503Z,1021.9
2016-04-02T00:13:46.506Z,1021.9
2016-04-02T00:14:46.524Z,1021.91
2016-04-02T00:15:59.279Z,1021.88
2016-04-02T00:16:52.829Z,1021.9
2016-04-02T00:18:05.769Z,1021.87
2016-04-02T00:18:46.597Z,1021.88
2016-04-02T00:20:05.805Z,1021.87
2016-04-02T00:20:49.680Z,1021.84
2016-04-02T00:22:08.905Z,1021.85
2016-04-02T00:22:52.767Z,1021.8
2016-04-02T00:24:12.020Z,1021.82
2016-04-02T00:24:55.881Z,1021.81
2016-04-02T00:25:55.900Z,1021.8
2016-04-02T00:26:55.919Z,1021.8
2016-04-02T00:27:55.922Z,1021.81
2016-04-02T00:29:08.674Z,1021.83
2016-04-02T00:29:55.973Z,1021.8
2016-04-02T00:30:55.976Z,1021.84
2016-04-02T00:32:08.729Z,1021.78
2016-04-02T00:32:56.012Z,1021.84
2016-04-02T00:34:08.749Z,1021.81
2016-04-02T00:36:08.791Z,1021.78
2016-04-02T00:36:56.075Z,1021.83
2016-04-02T00:38:17.515Z,1021.76
2016-04-02T00:39:11.284Z,1021.75
2016-04-02T00:40:24.020Z,1021.74
2016-04-02T00:41:36.977Z,1021.74
2016-04-02T00:42:11.323Z,1021.72
2016-04-02T00:44:20.923Z,1021.72
2016-04-02T00:45:20.940Z,1021.7
2016-04-02T00:46:20.943Z,1021.71
2016-04-02T00:47:20.977Z,1021.7
2016-04-02T00:48:22.401Z,1021.68
2016-04-02T00:49:20.998Z,1021.64
2016-04-02T00:50:24.047Z,1021.66
2016-04-02T00:51:21.034Z,1021.64
2016-04-02T00:52:33.772Z,1021.65
2016-04-02T00:53:21.055Z,1021.62
2016-04-02T00:54:21.074Z,1021.66
2016-04-02T00:55:21.092Z,1021.61
2016-04-02T00:56:21.126Z,1021.62
2016-04-02T00:57:21.113Z,1021.58
2016-04-02T00:58:33.865Z,1021.57
2016-04-02T00:59:21.150Z,1021.63
2016-04-02T01:00:46.855Z,1021.59
2016-04-02T01:01:21.186Z,1021.58
2016-04-02T01:02:21.189Z,1021.56
2016-04-02T01:03:21.207Z,1021.58
2016-04-02T01:04:34.069Z,1021.57
2016-04-02T01:05:21.244Z,1021.53
2016-04-02T01:06:46.935Z,1021.54
2016-04-02T01:07:21.281Z,1021.54
2016-04-02T01:09:36.505Z,1021.56
2016-04-02T01:10:36.540Z,1021.54
2016-04-02T01:11:36.542Z,1021.56
2016-04-02T01:12:36.560Z,1021.55
2016-04-02T01:13:36.578Z,1021.56
2016-04-02T01:14:36.596Z,1021.55
2016-04-02T01:15:36.614Z,1021.54
2016-04-02T01:16:46.290Z,1021.53
2016-04-02T01:17:46.323Z,1021.53
2016-04-02T01:18:46.325Z,1021.5
2016-04-02T01:19:46.938Z,1021.5
2016-04-02T01:20:46.347Z,1021.49
2016-04-02T01:21:59.118Z,1021.52
2016-04-02T01:22:46.400Z,1021.52
2016-04-02T01:24:12.092Z,1021.49
2016-04-02T01:24:46.420Z,1021.51
2016-04-02T01:25:46.438Z,1021.49
2016-04-02T01:26:46.457Z,1021.48
2016-04-02T01:27:46.460Z,1021.49
2016-04-02T01:28:46.478Z,1021.5
2016-04-02T01:29:46.512Z,1021.49
2016-04-02T01:30:46.514Z,1021.45
2016-04-02T01:31:46.533Z,1021.49
2016-04-02T01:32:46.552Z,1021.47
2016-04-02T01:33:59.307Z,1021.47
2016-04-02T01:34:46.572Z,1021.49
2016-04-02T01:35:46.591Z,1021.46
2016-04-02T01:36:46.609Z,1021.46
2016-04-02T01:37:46.612Z,1021.47
2016-04-02T01:38:46.646Z,1021.49
2016-04-02T01:39:49.742Z,1021.45
2016-04-02T01:40:49.948Z,1021.44
2016-04-02T01:41:53.873Z,1021.45
2016-04-02T01:42:53.875Z,1021.44
2016-04-02T01:43:56.959Z,1021.39
2016-04-02T01:46:12.151Z,1021.44
2016-04-02T01:47:12.170Z,1021.42
2016-04-02T01:48:12.187Z,1021.38
2016-04-02T01:49:12.206Z,1021.41
2016-04-02T01:50:12.208Z,1021.39
2016-04-02T01:51:12.242Z,1021.37
2016-04-02T01:52:12.261Z,1021.41
2016-04-02T01:53:12.264Z,1021.37
2016-04-02T01:54:12.282Z,1021.33
2016-04-02T01:55:25.035Z,1021.33
2016-04-02T01:56:12.312Z,1021.34
2016-04-02T01:57:37.990Z,1021.33
2016-04-02T01:58:12.325Z,1021.32
2016-04-02T01:59:12.332Z,1021.32
2016-04-02T02:00:25.057Z,1021.32
2016-04-02T02:01:12.334Z,1021.32
2016-04-02T02:02:12.348Z,1021.31
2016-04-02T02:03:12.347Z,1021.35
2016-04-02T02:04:12.361Z,1021.34
2016-04-02T02:05:25.110Z,1021.32
2016-04-02T02:06:12.406Z,1021.37
2016-04-02T02:07:12.407Z,1021.34
2016-04-02T02:08:13.599Z,1021.39
2016-04-02T02:09:12.435Z,1021.39
2016-04-02T02:10:12.451Z,1021.35
2016-04-02T02:11:12.469Z,1021.35
2016-04-02T02:12:12.488Z,1021.34
2016-04-02T02:13:12.490Z,1021.38
2016-04-02T02:14:12.523Z,1021.4
2016-04-02T02:15:12.518Z,1021.39
2016-04-02T02:16:12.537Z,1021.37
2016-04-02T02:17:12.554Z,1021.36
2016-04-02T02:18:13.166Z,1021.36
2016-04-02T02:19:12.590Z,1021.35
2016-04-02T02:20:12.607Z,1021.37
2016-04-02T02:21:12.626Z,1021.38
2016-04-02T02:22:12.644Z,1021.36
2016-04-02T02:23:12.662Z,1021.35
2016-04-02T02:24:12.868Z,1021.3
2016-04-02T02:25:12.683Z,1021.32
2016-04-02T02:26:25.436Z,1021.34
2016-04-02T02:27:12.721Z,1021.27
2016-04-02T02:28:12.723Z,1021.26
2016-04-02T02:29:12.742Z,1021.23
2016-04-02T02:30:12.759Z,1021.23
2016-04-02T02:31:12.778Z,1021.18
2016-04-02T02:32:25.531Z,1021.18
2016-04-02T02:33:12.815Z,1021.16
2016-04-02T02:34:12.818Z,1021.13
2016-04-02T02:35:25.586Z,1021.12
2016-04-02T02:36:12.854Z,1021.16
2016-04-02T02:37:12.873Z,1021.13
2016-04-02T02:38:12.875Z,1021.09
2016-04-02T02:39:19.175Z,1021.13
2016-04-02T02:40:12.927Z,1021.14
2016-04-02T02:41:12.931Z,1021.13
2016-04-02T02:42:12.949Z,1021.09
2016-04-02T02:43:12.952Z,1021.1
2016-04-02T02:44:12.986Z,1021.05
2016-04-02T02:45:13.003Z,1021.08
2016-04-02T02:46:32.225Z,1021.09
2016-04-02T02:47:13.025Z,1021.08
2016-04-02T02:48:13.043Z,1021.03
2016-04-02T02:49:16.968Z,1021.06
2016-04-02T02:50:16.985Z,1021.05
2016-04-02T02:51:17.004Z,1021.02
2016-04-02T02:52:17.022Z,1021.04
2016-04-02T02:53:17.024Z,1021.04
2016-04-02T02:54:17.043Z,1021.02
2016-04-02T02:55:36.280Z,1021.05
2016-04-02T02:56:19.549Z,1020.99
2016-04-02T02:57:19.552Z,1020.98
2016-04-02T02:58:19.554Z,1020.99
2016-04-02T02:59:19.588Z,1020.99
2016-04-02T03:00:19.590Z,1020.95
2016-04-02T03:01:20.218Z,1020.96
2016-04-02T03:02:19.612Z,1020.97
2016-04-02T03:03:38.833Z,1020.95
2016-04-02T03:04:19.649Z,1020.98
2016-04-02T03:05:19.667Z,1020.95
2016-04-02T03:06:20.295Z,1020.95
2016-04-02T03:07:19.688Z,1020.95
2016-04-02T03:08:25.988Z,1020.91
2016-04-02T03:09:19.725Z,1020.96
2016-04-02T03:10:19.743Z,1020.95
2016-04-02T03:11:19.761Z,1020.95
2016-04-02T03:12:19.795Z,1020.9
2016-04-02T03:13:19.783Z,1020.86
2016-04-02T03:14:19.800Z,1020.84
2016-04-02T03:15:19.819Z,1020.82
2016-04-02T03:16:19.836Z,1020.79
2016-04-02T03:17:19.839Z,1020.78
2016-04-02T03:18:19.858Z,1020.82
2016-04-02T03:19:19.877Z,1020.8
2016-04-02T03:20:19.895Z,1020.78
2016-04-02T03:21:19.913Z,1020.82
2016-04-02T03:22:20.135Z,1020.8
2016-04-02T03:23:19.949Z,1020.76
2016-04-02T03:24:45.640Z,1020.81
2016-04-02T03:25:29.502Z,1020.76
2016-04-02T03:26:29.520Z,1020.76
2016-04-02T03:28:42.291Z,1020.71
2016-04-02T03:29:29.622Z,1020.72
2016-04-02T03:30:29.579Z,1020.7
2016-04-02T03:31:29.596Z,1020.69
2016-04-02T03:32:29.615Z,1020.68
2016-04-02T03:33:29.617Z,1020.68
2016-04-02T03:34:29.651Z,1020.63
2016-04-02T03:35:30.263Z,1020.64
2016-04-02T03:36:29.673Z,1020.63
2016-04-02T03:37:29.690Z,1020.59
2016-04-02T03:38:29.709Z,1020.56
2016-04-02T03:39:48.930Z,1020.58
2016-04-02T03:40:42.480Z,1020.59
2016-04-02T03:41:29.748Z,1020.58
2016-04-02T03:42:52.048Z,1020.58
2016-04-02T03:43:52.051Z,1020.55
2016-04-02T03:44:52.069Z,1020.56
2016-04-02T03:45:52.087Z,1020.56
2016-04-02T03:46:52.090Z,1020.55
2016-04-02T03:47:52.124Z,1020.5
2016-04-02T03:48:58.486Z,1020.52
2016-04-02T03:49:52.144Z,1020.47
2016-04-02T03:50:52.163Z,1020.47
2016-04-02T03:51:52.180Z,1020.47
2016-04-02T03:52:52.199Z,1020.44
2016-04-02T03:53:52.218Z,1020.49
2016-04-02T03:54:52.220Z,1020.47
2016-04-02T03:55:52.238Z,1020.48
2016-04-02T03:56:52.257Z,1020.51
2016-04-02T03:57:52.276Z,1020.43
2016-04-02T03:58:52.294Z,1020.45
2016-04-02T03:59:52.312Z,1020.42
2016-04-02T04:00:52.315Z,1020.38
2016-04-02T04:01:58.598Z,1020.39
2016-04-02T04:02:52.351Z,1020.37
2016-04-02T04:03:52.354Z,1020.36
2016-04-02T04:04:52.373Z,1020.41
2016-04-02T04:06:05.126Z,1020.38
2016-04-02T04:06:52.410Z,1020.36
2016-04-02T04:08:05.146Z,1020.37
2016-04-02T04:08:52.431Z,1020.41
2016-04-02T04:09:52.465Z,1020.4
2016-04-02T04:10:58.732Z,1020.41
2016-04-02T04:11:52.485Z,1020.38
2016-04-02T04:13:11.706Z,1020.38
2016-04-02T04:13:52.522Z,1020.34
2016-04-02T04:14:52.540Z,1020.32
2016-04-02T04:15:53.152Z,1020.35
2016-04-02T04:16:52.561Z,1020.33
2016-04-02T04:17:52.579Z,1020.33
2016-04-02T04:18:52.582Z,1020.31
2016-04-02T04:20:11.803Z,1020.32
2016-04-02T04:20:52.619Z,1020.32
2016-04-02T04:23:14.921Z,1020.29
2016-04-02T04:24:02.205Z,1020.32
2016-04-02T04:25:02.208Z,1020.32
2016-04-02T04:26:02.241Z,1020.3
2016-04-02T04:27:02.244Z,1020.28
2016-04-02T04:28:02.262Z,1020.29
2016-04-02T04:29:02.280Z,1020.24
2016-04-02T04:30:02.282Z,1020.23
2016-04-02T04:31:02.301Z,1020.23
2016-04-02T04:32:02.320Z,1020.19
2016-04-02T04:33:02.338Z,1020.19
2016-04-02T04:34:15.090Z,1020.19
2016-04-02T04:35:02.376Z,1020.17
2016-04-02T04:36:02.378Z,1020.18
2016-04-02T04:37:02.396Z,1020.2
2016-04-02T04:39:43.264Z,1020.22
2016-04-02T04:40:17.607Z,1020.18
2016-04-02T04:41:17.609Z,1020.19
2016-04-02T04:42:17.644Z,1020.17
2016-04-02T04:43:17.647Z,1020.23
2016-04-02T04:44:36.887Z,1020.2
2016-04-02T04:45:17.684Z,1020.2
2016-04-02T04:46:17.701Z,1020.22
2016-04-02T04:47:17.704Z,1020.24
2016-04-02T04:48:17.723Z,1020.2
2016-04-02T04:49:33.962Z,1020.22
2016-04-02T04:50:43.496Z,1020.21
2016-04-02T04:52:09.186Z,1020.19
2016-04-02T04:52:47.424Z,1020.21
2016-04-02T04:54:13.113Z,1020.18
2016-04-02T04:54:56.991Z,1020.19
2016-04-02T04:56:16.213Z,1020.22
2016-04-02T04:57:31.406Z,1020.25
2016-04-02T04:58:31.424Z,1020.23
2016-04-02T04:59:31.427Z,1020.23
2016-04-02T05:00:44.196Z,1020.22
2016-04-02T05:01:31.463Z,1020.21
2016-04-02T05:02:50.685Z,1020.18
2016-04-02T05:03:34.624Z,1020.14
2016-04-02T05:05:00.315Z,1020.15
2016-04-02T05:06:15.521Z,1020.13
2016-04-02T05:07:15.523Z,1020.11
2016-04-02T05:08:15.589Z,1020.14
2016-04-02T05:09:25.156Z,1020.15
2016-04-02T05:11:35.317Z,1020.09
2016-04-02T05:12:35.337Z,1020.12
2016-04-02T05:13:35.355Z,1020.15
2016-04-02T05:14:48.108Z,1020.13
2016-04-02T05:15:35.376Z,1020.11
2016-04-02T05:16:35.394Z,1020.17
2016-04-02T05:17:48.147Z,1020.15
2016-04-02T05:18:35.414Z,1020.18
2016-04-02T05:19:35.433Z,1020.21
2016-04-02T05:20:38.514Z,1020.22
2016-04-02T05:21:38.533Z,1020.25
2016-04-02T05:22:44.645Z,1020.2
2016-04-02T05:23:41.617Z,1020.26
2016-04-02T05:24:41.635Z,1020.26
2016-04-02T05:25:41.638Z,1020.25
2016-04-02T05:26:41.655Z,1020.27
2016-04-02T05:27:41.674Z,1020.29
2016-04-02T05:28:54.442Z,1020.32
2016-04-02T05:29:41.710Z,1020.24
2016-04-02T05:30:58.291Z,1020.28
2016-04-02T05:31:58.309Z,1020.27
2016-04-02T05:34:15.487Z,1020.28
2016-04-02T05:36:30.792Z,1020.29
2016-04-02T05:37:30.810Z,1020.32
2016-04-02T05:38:30.813Z,1020.29
2016-04-02T05:39:30.846Z,1020.28
2016-04-02T05:40:30.849Z,1020.26
2016-04-02T05:41:43.601Z,1020.33
2016-04-02T05:42:50.089Z,1020.31
2016-04-02T05:43:56.576Z,1020.33
2016-04-02T05:44:30.906Z,1020.35
2016-04-02T05:46:05.316Z,1020.36
2016-04-02T05:47:05.333Z,1020.37
2016-04-02T05:48:05.336Z,1020.34
2016-04-02T05:49:18.089Z,1020.32
2016-04-02T05:50:05.373Z,1020.34
2016-04-02T05:51:05.392Z,1020.29
2016-04-02T05:52:11.676Z,1020.34
2016-04-02T05:53:05.428Z,1020.35
2016-04-02T05:54:05.431Z,1020.34
2016-04-02T05:55:05.512Z,1020.32
2016-04-02T05:56:05.468Z,1020.29
2016-04-02T05:57:05.486Z,1020.3
2016-04-02T05:58:20.679Z,1020.29
2016-04-02T05:59:20.697Z,1020.27
2016-04-02T06:00:20.716Z,1020.29
2016-04-02T06:01:20.719Z,1020.29
2016-04-02T06:02:33.487Z,1020.28
2016-04-02T06:03:27.036Z,1020.29
2016-04-02T06:04:46.446Z,1020.34
2016-04-02T06:05:33.588Z,1020.37
2016-04-02T06:06:20.810Z,1020.37
2016-04-02T06:07:20.828Z,1020.37
2016-04-02T06:08:20.846Z,1020.37
2016-04-02T06:09:20.849Z,1020.3
2016-04-02T06:10:20.883Z,1020.32
2016-04-02T06:11:20.901Z,1020.29
2016-04-02T06:12:20.919Z,1020.29
2016-04-02T06:13:20.937Z,1020.3
2016-04-02T06:14:33.690Z,1020.29
2016-04-02T06:15:20.975Z,1020.28
2016-04-02T06:16:40.196Z,1020.26
2016-04-02T06:17:21.012Z,1020.26
2016-04-02T06:18:46.686Z,1020.27
2016-04-02T06:19:30.767Z,1020.27
2016-04-02T06:20:30.581Z,1020.3
2016-04-02T06:21:30.600Z,1020.32
2016-04-02T06:22:30.619Z,1020.31
2016-04-02T06:23:30.636Z,1020.34
2016-04-02T06:24:30.655Z,1020.35
2016-04-02T06:25:30.688Z,1020.36
2016-04-02T06:26:30.691Z,1020.31
2016-04-02T06:27:30.725Z,1020.32
2016-04-02T06:28:30.727Z,1020.32
2016-04-02T06:29:30.762Z,1020.23
2016-04-02T06:30:30.765Z,1020.31
2016-04-02T06:31:30.798Z,1020.25
2016-04-02T06:32:30.818Z,1020.28
2016-04-02T06:33:30.835Z,1020.3
2016-04-02T06:34:30.854Z,1020.32
2016-04-02T06:35:30.871Z,1020.34
2016-04-02T06:36:30.890Z,1020.4
2016-04-02T06:37:30.924Z,1020.39
2016-04-02T06:38:30.927Z,1020.38
2016-04-02T06:39:30.962Z,1020.38
2016-04-02T06:40:30.980Z,1020.36
2016-04-02T06:41:30.998Z,1020.37
2016-04-02T06:42:31.001Z,1020.35
2016-04-02T06:43:31.035Z,1020.39
2016-04-02T06:44:31.053Z,1020.39
2016-04-02T06:45:31.071Z,1020.37
2016-04-02T06:46:31.089Z,1020.41
2016-04-02T06:47:31.108Z,1020.42
2016-04-02T06:48:31.142Z,1020.44
2016-04-02T06:49:31.144Z,1020.44
2016-04-02T06:50:31.194Z,1020.4
2016-04-02T06:51:31.196Z,1020.46
2016-04-02T06:52:31.214Z,1020.48
2016-04-02T06:53:31.233Z,1020.49
2016-04-02T06:54:43.986Z,1020.48
2016-04-02T06:55:31.270Z,1020.41
2016-04-02T06:56:31.303Z,1020.42
2016-04-02T06:57:34.369Z,1020.45
2016-04-02T06:58:34.387Z,1020.44
2016-04-02T06:59:34.405Z,1020.51
2016-04-02T07:00:40.689Z,1020.48
2016-04-02T07:01:34.457Z,1020.46
2016-04-02T07:02:34.476Z,1020.49
2016-04-02T07:03:34.509Z,1020.51
2016-04-02T07:04:34.512Z,1020.54
2016-04-02T07:05:34.546Z,1020.54
2016-04-02T07:06:34.565Z,1020.54
2016-04-02T07:07:34.598Z,1020.51
2016-04-02T07:08:40.883Z,1020.45
2016-04-02T07:09:34.635Z,1020.51
2016-04-02T07:10:34.654Z,1020.43
2016-04-02T07:11:34.688Z,1020.46
2016-04-02T07:12:53.925Z,1020.45
2016-04-02T07:13:34.740Z,1020.44
2016-04-02T07:14:34.759Z,1020.34
2016-04-02T07:15:34.776Z,1020.38
2016-04-02T07:16:34.811Z,1020.41
2016-04-02T07:17:34.829Z,1020.41
2016-04-02T07:18:34.847Z,1020.41
2016-04-02T07:19:34.881Z,1020.39
2016-04-02T07:20:34.900Z,1020.33
2016-04-02T07:21:34.933Z,1020.34
2016-04-02T07:22:47.702Z,1020.35
2016-04-02T07:23:34.986Z,1020.36
2016-04-02T07:24:35.003Z,1020.3
2016-04-02T07:25:35.038Z,1020.37
2016-04-02T07:26:35.055Z,1020.37
2016-04-02T07:27:35.090Z,1020.34
2016-04-02T07:28:35.108Z,1020.36
2016-04-02T07:29:35.127Z,1020.36
2016-04-02T07:30:35.177Z,1020.32
2016-04-02T07:31:35.194Z,1020.36
2016-04-02T07:32:35.229Z,1020.31
2016-04-02T07:33:35.246Z,1020.32
2016-04-02T07:34:35.280Z,1020.3
2016-04-02T07:35:35.299Z,1020.35
2016-04-02T07:36:35.318Z,1020.33
2016-04-02T07:37:35.351Z,1020.36
2016-04-02T07:38:35.370Z,1020.34
2016-04-02T07:39:35.403Z,1020.32
2016-04-02T07:40:35.421Z,1020.31
2016-04-02T07:41:35.456Z,1020.27
2016-04-02T07:42:35.490Z,1020.22
2016-04-02T07:43:35.509Z,1020.25
2016-04-02T07:44:35.526Z,1020.28
2016-04-02T07:45:35.560Z,1020.25
2016-04-02T07:46:35.578Z,1020.2
2016-04-02T07:47:35.612Z,1020.17
2016-04-02T07:48:35.631Z,1020.12
2016-04-02T07:49:35.664Z,1020.14
2016-04-02T07:50:35.684Z,1020.15
2016-04-02T07:51:35.717Z,1020.15
2016-04-02T07:52:35.845Z,1020.16
2016-04-02T07:53:35.770Z,1020.08
2016-04-02T07:54:35.803Z,1020.07
2016-04-02T07:55:35.806Z,1020.07
2016-04-02T07:56:35.839Z,1020.05
2016-04-02T07:57:35.858Z,1020.08
2016-04-02T07:58:35.891Z,1020.08
2016-04-02T07:59:35.910Z,1020.03
2016-04-02T08:00:35.929Z,1020.05
2016-04-02T08:01:35.963Z,1020.02
2016-04-02T08:02:48.716Z,1020.02
2016-04-02T08:03:36.016Z,1020
2016-04-02T08:05:01.705Z,1020.02
2016-04-02T08:05:36.052Z,1020
2016-04-02T08:06:36.085Z,1020.06
2016-04-02T08:07:36.088Z,1020.12
2016-04-02T08:08:36.121Z,1020.15
2016-04-02T08:09:36.140Z,1020.17
2016-04-02T08:10:36.159Z,1020.11
2016-04-02T08:11:36.192Z,1020.15
2016-04-02T08:12:36.211Z,1020.14
2016-04-02T08:13:36.214Z,1020.14
2016-04-02T08:14:36.232Z,1020.16
2016-04-02T08:15:36.266Z,1020.16
2016-04-02T08:16:36.284Z,1020.16
2016-04-02T08:17:36.303Z,1020.17
2016-04-02T08:18:36.336Z,1020.2
2016-04-02T08:19:36.355Z,1020.2
2016-04-02T08:20:36.358Z,1020.21
2016-04-02T08:21:36.392Z,1020.23
2016-04-02T08:22:36.410Z,1020.21
2016-04-02T08:23:37.037Z,1020.2
2016-04-02T08:24:36.447Z,1020.2
2016-04-02T08:25:36.464Z,1020.19
2016-04-02T08:26:36.499Z,1020.19
2016-04-02T08:27:36.516Z,1020.14
2016-04-02T08:28:36.535Z,1020.08
2016-04-02T08:29:36.553Z,1020.1
2016-04-02T08:30:36.572Z,1020.06
2016-04-02T08:31:36.606Z,1020.06
2016-04-02T08:32:36.624Z,1020.04
2016-04-02T08:33:36.627Z,1020.11
2016-04-02T08:34:49.379Z,1020.11
2016-04-02T08:35:36.663Z,1020.09
2016-04-02T08:36:55.900Z,1020.12
2016-04-02T08:37:36.715Z,1020.11
2016-04-02T08:39:51.924Z,1020.08
2016-04-02T08:40:51.942Z,1020.08
2016-04-02T08:41:51.961Z,1020.08
2016-04-02T08:43:07.135Z,1020.1
2016-04-02T08:44:07.154Z,1020.09
2016-04-02T08:45:07.172Z,1020.06
2016-04-02T08:46:07.206Z,1020.04
2016-04-02T08:47:07.209Z,1019.97
2016-04-02T08:48:07.243Z,1019.98
2016-04-02T08:49:07.308Z,1019.95
2016-04-02T08:50:17.561Z,1019.95
2016-04-02T08:52:20.831Z,1019.93
2016-04-02T08:53:20.834Z,1019.99
2016-04-02T08:54:33.605Z,1019.95
2016-04-02T08:55:20.870Z,1019.93
2016-04-02T08:56:40.095Z,1019.96
2016-04-02T08:57:20.908Z,1019.96
2016-04-02T08:59:30.494Z,1019.96
2016-04-02T09:01:30.530Z,1019.94
2016-04-02T09:02:30.548Z,1019.95
2016-04-02T09:03:43.317Z,1019.95
2016-04-02T09:04:43.319Z,1019.91
2016-04-02T09:05:56.275Z,1019.86
2016-04-02T09:06:30.637Z,1019.88
2016-04-02T09:07:30.655Z,1019.85
2016-04-02T09:08:43.407Z,1019.83
2016-04-02T09:09:30.692Z,1019.83
2016-04-02T09:10:56.382Z,1019.83
2016-04-02T09:11:30.729Z,1019.81
2016-04-02T09:12:30.748Z,1019.77
2016-04-02T09:13:30.765Z,1019.78
2016-04-02T09:14:30.784Z,1019.78
2016-04-02T09:15:30.818Z,1019.71
2016-04-02T09:16:30.837Z,1019.74
2016-04-02T09:17:30.855Z,1019.74
2016-04-02T09:18:30.873Z,1019.79
2016-04-02T09:19:30.892Z,1019.76
2016-04-02T09:20:30.909Z,1019.74
2016-04-02T09:21:30.943Z,1019.78
2016-04-02T09:22:30.945Z,1019.77
2016-04-02T09:23:30.964Z,1019.75
2016-04-02T09:24:30.998Z,1019.73
2016-04-02T09:25:31.017Z,1019.74
2016-04-02T09:26:31.036Z,1019.72
2016-04-02T09:27:31.053Z,1019.73
2016-04-02T09:28:31.072Z,1019.77
2016-04-02T09:29:31.089Z,1019.79
2016-04-02T09:30:31.108Z,1019.77
2016-04-02T09:31:31.141Z,1019.76
2016-04-02T09:32:31.160Z,1019.8
2016-04-02T09:33:31.179Z,1019.78
2016-04-02T09:34:31.213Z,1019.72
2016-04-02T09:35:31.216Z,1019.74
2016-04-02T09:36:31.233Z,1019.76
2016-04-02T09:37:37.533Z,1019.74
2016-04-02T09:38:31.270Z,1019.72
2016-04-02T09:39:31.305Z,1019.7
2016-04-02T09:40:31.307Z,1019.72
2016-04-02T09:41:31.341Z,1019.69
2016-04-02T09:42:31.374Z,1019.65
2016-04-02T09:43:31.377Z,1019.61
2016-04-02T09:44:31.396Z,1019.58
2016-04-02T09:45:31.414Z,1019.57
2016-04-02T09:46:31.432Z,1019.62
2016-04-02T09:47:31.466Z,1019.63
2016-04-02T09:48:32.095Z,1019.62
2016-04-02T09:49:31.503Z,1019.62
2016-04-02T09:50:31.521Z,1019.62
2016-04-02T09:51:31.539Z,1019.64
2016-04-02T09:52:31.980Z,1019.59
2016-04-02T09:53:44.483Z,1019.64
2016-04-02T09:54:31.906Z,1019.65
2016-04-02T09:55:57.409Z,1019.64
2016-04-02T09:56:31.850Z,1019.67
2016-04-02T09:57:31.728Z,1019.67
2016-04-02T09:58:41.293Z,1019.66
2016-04-02T09:59:41.311Z,1019.66
2016-04-02T10:00:41.330Z,1019.69
2016-04-02T10:01:41.363Z,1019.67
2016-04-02T10:02:41.382Z,1019.69
2016-04-02T10:03:41.400Z,1019.64
2016-04-02T10:04:41.419Z,1019.65
2016-04-02T10:05:54.172Z,1019.66
2016-04-02T10:06:41.471Z,1019.65
2016-04-02T10:07:41.489Z,1019.6
2016-04-02T10:08:41.507Z,1019.58
2016-04-02T10:09:41.557Z,1019.58
2016-04-02T10:10:41.543Z,1019.53
2016-04-02T10:11:41.577Z,1019.48
2016-04-02T10:12:41.596Z,1019.48
2016-04-02T10:13:41.615Z,1019.48
2016-04-02T10:14:41.633Z,1019.44
2016-04-02T10:15:41.651Z,1019.45
2016-04-02T10:16:41.685Z,1019.42
2016-04-02T10:17:41.859Z,1019.41
2016-04-02T10:18:42.065Z,1019.39
2016-04-02T10:19:48.161Z,1019.31
2016-04-02T10:20:42.055Z,1019.37
2016-04-02T10:21:48.151Z,1019.37
2016-04-02T10:22:42.045Z,1019.38
2016-04-02T10:23:41.876Z,1019.43
2016-04-02T10:24:42.050Z,1019.4
2016-04-02T10:25:41.928Z,1019.4
2016-04-02T10:26:42.039Z,1019.39
2016-04-02T10:27:42.214Z,1019.38
2016-04-02T10:28:42.280Z,1019.4
2016-04-02T10:29:41.955Z,1019.36
2016-04-02T10:30:41.973Z,1019.4
2016-04-02T10:31:41.991Z,1019.42
2016-04-02T10:32:42.009Z,1019.39
2016-04-02T10:33:42.027Z,1019.41
2016-04-02T10:34:42.046Z,1019.39
2016-04-02T10:35:42.173Z,1019.42
2016-04-02T10:36:42.098Z,1019.38
2016-04-02T10:37:54.991Z,1019.37
2016-04-02T10:38:42.135Z,1019.36
2016-04-02T10:39:42.169Z,1019.38
2016-04-02T10:40:42.187Z,1019.42
2016-04-02T10:41:48.471Z,1019.42
2016-04-02T10:42:42.224Z,1019.4
2016-04-02T10:43:42.242Z,1019.38
2016-04-02T10:44:42.276Z,1019.34
2016-04-02T10:45:55.012Z,1019.34
2016-04-02T10:46:42.328Z,1019.31
2016-04-02T10:48:08.003Z,1019.35
2016-04-02T10:48:42.349Z,1019.31
2016-04-02T10:50:57.573Z,1019.31
2016-04-02T10:51:57.592Z,1019.31
2016-04-02T10:53:10.344Z,1019.25
2016-04-02T10:53:57.629Z,1019.24
2016-04-02T10:55:16.850Z,1019.31
2016-04-02T10:55:57.665Z,1019.31
2016-04-02T10:56:57.715Z,1019.28
2016-04-02T10:57:57.717Z,1019.3
2016-04-02T10:59:10.470Z,1019.3
2016-04-02T10:59:57.753Z,1019.26
2016-04-02T11:00:57.772Z,1019.17
2016-04-02T11:01:57.790Z,1019.19
2016-04-02T11:02:57.814Z,1019.21
2016-04-02T11:03:57.820Z,1019.15
2016-04-02T11:04:57.828Z,1019.17
2016-04-02T11:05:57.836Z,1019.16
2016-04-02T11:06:57.842Z,1019.15
2016-04-02T11:08:10.606Z,1019.17
2016-04-02T11:09:10.652Z,1019.19
2016-04-02T11:10:23.572Z,1019.15
2016-04-02T11:11:17.117Z,1019.15
2016-04-02T11:12:01.022Z,1019.17
2016-04-02T11:13:01.038Z,1019.14
2016-04-02T11:14:01.071Z,1019.12
2016-04-02T11:15:26.759Z,1019.16
2016-04-02T11:16:05.057Z,1019.08
2016-04-02T11:17:05.074Z,1019.07
2016-04-02T11:18:09.249Z,1019.02
2016-04-02T11:20:24.488Z,1018.97
2016-04-02T11:21:24.506Z,1018.97
2016-04-02T11:22:24.523Z,1018.99
2016-04-02T11:23:24.542Z,1018.97
2016-04-02T11:24:30.829Z,1018.93
2016-04-02T11:25:26.017Z,1018.93
2016-04-02T11:26:37.350Z,1018.87
2016-04-02T11:27:27.662Z,1018.91
2016-04-02T11:28:24.650Z,1018.91
2016-04-02T11:29:30.933Z,1018.91
2016-04-02T11:30:24.686Z,1018.86
2016-04-02T11:31:43.925Z,1018.87
2016-04-02T11:32:37.475Z,1018.84
2016-04-02T11:33:53.306Z,1018.85
2016-04-02T11:34:50.075Z,1018.79
2016-04-02T11:36:15.765Z,1018.78
2016-04-02T11:36:50.111Z,1018.76
2016-04-02T11:39:05.335Z,1018.79
2016-04-02T11:40:31.025Z,1018.77
2016-04-02T11:41:15.121Z,1018.75
2016-04-02T11:42:15.155Z,1018.74
2016-04-02T11:43:15.174Z,1018.69
2016-04-02T11:44:34.414Z,1018.68
2016-04-02T11:45:21.586Z,1018.6
2016-04-02T11:46:37.794Z,1018.62
2016-04-02T11:47:53.609Z,1018.69
2016-04-02T11:48:27.953Z,1018.71
2016-04-02T11:49:27.971Z,1018.68
2016-04-02T11:50:43.321Z,1018.68
2016-04-02T11:51:43.355Z,1018.67
2016-04-02T11:53:58.548Z,1018.66
2016-04-02T11:54:58.565Z,1018.66
2016-04-02T11:55:58.600Z,1018.68
2016-04-02T11:58:13.792Z,1018.74
2016-04-02T11:59:13.826Z,1018.63
2016-04-02T12:00:16.953Z,1018.65
2016-04-02T12:01:16.957Z,1018.62
2016-04-02T12:02:16.991Z,1018.6
2016-04-02T12:03:29.744Z,1018.61
2016-04-02T12:04:17.027Z,1018.61
2016-04-02T12:05:42.720Z,1018.62
2016-04-02T12:06:26.580Z,1018.59
2016-04-02T12:07:26.613Z,1018.57
2016-04-02T12:08:26.647Z,1018.54
2016-04-02T12:09:39.402Z,1018.47
2016-04-02T12:10:26.683Z,1018.46
2016-04-02T12:11:26.702Z,1018.46
2016-04-02T12:12:26.721Z,1018.42
2016-04-02T12:13:26.755Z,1018.43
2016-04-02T12:14:36.322Z,1018.43
2016-04-02T12:15:36.341Z,1018.43
2016-04-02T12:16:36.374Z,1018.41
2016-04-02T12:17:36.394Z,1018.4
2016-04-02T12:18:36.412Z,1018.35
2016-04-02T12:19:36.430Z,1018.37
2016-04-02T12:20:36.448Z,1018.34
2016-04-02T12:21:36.498Z,1018.34
2016-04-02T12:22:36.501Z,1018.35
2016-04-02T12:23:36.534Z,1018.37
2016-04-02T12:24:36.537Z,1018.35
2016-04-02T12:25:36.555Z,1018.37
2016-04-02T12:26:36.590Z,1018.33
2016-04-02T12:27:36.623Z,1018.32
2016-04-02T12:28:36.626Z,1018.35
2016-04-02T12:29:36.660Z,1018.39
2016-04-02T12:30:36.678Z,1018.38
2016-04-02T12:31:36.712Z,1018.39
2016-04-02T12:32:36.730Z,1018.36
2016-04-02T12:33:49.498Z,1018.37
2016-04-02T12:34:36.766Z,1018.4
2016-04-02T12:35:55.988Z,1018.42
2016-04-02T12:36:39.881Z,1018.44
2016-04-02T12:38:05.572Z,1018.44
2016-04-02T12:38:49.481Z,1018.46
2016-04-02T12:40:15.171Z,1018.41